createdAt,value
2023-02-07T00:02:07.765Z,-5.98
2023-02-07T00:04:34.081Z,-5.99
2023-02-07T00:07:00.395Z,-6.07
2023-02-07T00:09:26.710Z,-6.07
2023-02-07T00:11:53.010Z,-6.06
2023-02-07T00:14:19.327Z,-6.07
2023-02-07T00:16:45.669Z,-6.12
2023-02-07T00:19:12.045Z,-6.12
2023-02-07T00:21:38.458Z,-6.10
2023-02-07T00:24:05.384Z,-6.14
2023-02-07T00:26:31.753Z,-6.13
2023-02-07T00:28:58.081Z,-6.23
2023-02-07T00:31:30.635Z,-6.22
2023-02-07T00:33:59.744Z,-6.23
2023-02-07T00:36:28.217Z,-6.25
2023-02-07T00:38:59.782Z,-6.18
2023-02-07T00:41:27.105Z,-6.24
2023-02-07T00:43:53.672Z,-6.30
2023-02-07T00:46:21.192Z,-6.31
2023-02-07T00:48:47.588Z,-6.24
2023-02-07T00:51:14.302Z,-6.32
2023-02-07T00:53:41.059Z,-6.40
2023-02-07T00:56:08.474Z,-6.37
2023-02-07T00:58:35.139Z,-6.37
2023-02-07T01:01:01.465Z,-6.41
2023-02-07T01:03:27.797Z,-6.46
2023-02-07T01:05:54.096Z,-6.38
2023-02-07T01:08:20.407Z,-6.35
2023-02-07T01:10:46.885Z,-6.40
2023-02-07T01:13:14.963Z,-6.48
2023-02-07T01:15:44.208Z,-6.51
2023-02-07T01:18:11.401Z,-6.47
2023-02-07T01:20:37.844Z,-6.43
2023-02-07T01:23:05.215Z,-6.46
2023-02-07T01:25:31.874Z,-6.48
2023-02-07T01:27:58.186Z,-6.55
2023-02-07T01:30:24.536Z,-6.52
2023-02-07T01:32:50.912Z,-6.52
2023-02-07T01:35:17.268Z,-6.60
2023-02-07T01:37:43.587Z,-6.65
2023-02-07T01:40:11.702Z,-6.70
2023-02-07T01:42:38.281Z,-6.58
2023-02-07T01:45:22.835Z,-6.55
2023-02-07T01:47:51.361Z,-6.60
2023-02-07T01:50:17.951Z,-6.62
2023-02-07T01:52:44.942Z,-6.67
2023-02-07T01:55:17.773Z,-6.70
2023-02-07T01:57:45.038Z,-6.74
2023-02-07T02:00:14.804Z,-6.76
2023-02-07T02:02:41.886Z,-6.74
2023-02-07T02:05:10.424Z,-6.75
2023-02-07T02:07:39.204Z,-6.79
2023-02-07T02:10:40.841Z,-6.80
2023-02-07T02:13:14.761Z,-6.84
2023-02-07T02:16:06.100Z,-6.91
2023-02-07T02:18:50.052Z,-6.91
2023-02-07T02:21:31.435Z,-6.93
2023-02-07T02:24:19.101Z,-7.00
2023-02-07T02:27:05.735Z,-7.04
2023-02-07T02:29:31.980Z,-7.00
2023-02-07T02:32:29.232Z,-7.05
2023-02-07T02:35:20.277Z,-7.06
2023-02-07T02:38:02.128Z,-7.10
2023-02-07T02:40:47.196Z,-7.12
2023-02-07T02:43:21.520Z,-7.14
2023-02-07T02:45:55.388Z,-7.13
2023-02-07T02:48:23.564Z,-7.15
2023-02-07T02:50:50.055Z,-7.13
2023-02-07T02:53:16.620Z,-7.15
2023-02-07T02:56:08.598Z,-7.19
2023-02-07T02:58:58.732Z,-7.22
2023-02-07T03:01:24.997Z,-7.28
2023-02-07T03:04:28.928Z,-7.29
2023-02-07T03:07:18.205Z,-7.31
2023-02-07T03:09:59.695Z,-7.30
2023-02-07T03:12:34.724Z,-7.29
2023-02-07T03:15:26.391Z,-7.28
2023-02-07T03:17:55.674Z,-7.32
2023-02-07T03:20:37.051Z,-7.35
2023-02-07T03:23:05.854Z,-7.36
2023-02-07T03:25:32.749Z,-7.35
2023-02-07T03:27:59.123Z,-7.35
2023-02-07T03:30:30.189Z,-7.33
2023-02-07T03:32:59.195Z,-7.35
2023-02-07T03:35:30.487Z,-7.44
2023-02-07T03:37:59.265Z,-7.48
2023-02-07T03:40:29.840Z,-7.48
2023-02-07T03:43:33.475Z,-7.53
2023-02-07T03:45:59.798Z,-7.54
2023-02-07T03:48:26.175Z,-7.56
2023-02-07T03:50:52.484Z,-7.61
2023-02-07T03:53:20.376Z,-7.61
2023-02-07T03:55:46.688Z,-7.50
2023-02-07T03:58:13.188Z,-7.51
2023-02-07T04:00:39.625Z,-7.57
2023-02-07T04:03:06.374Z,-7.63
2023-02-07T04:05:32.822Z,-7.60
2023-02-07T04:07:59.126Z,-7.57
2023-02-07T04:10:25.435Z,-7.57
2023-02-07T04:12:51.868Z,-7.60
2023-02-07T04:15:18.528Z,-7.60
2023-02-07T04:17:44.837Z,-7.56
2023-02-07T04:20:12.182Z,-7.53
2023-02-07T04:22:38.688Z,-7.60
2023-02-07T04:25:05.378Z,-7.64
2023-02-07T04:27:31.766Z,-7.64
2023-02-07T04:29:58.077Z,-7.72
2023-02-07T04:32:24.431Z,-7.71
2023-02-07T04:34:50.753Z,-7.78
2023-02-07T04:37:17.425Z,-7.78
2023-02-07T04:39:43.773Z,-7.77
2023-02-07T04:42:10.081Z,-7.81
2023-02-07T04:44:36.393Z,-7.83
2023-02-07T04:47:02.717Z,-7.82
2023-02-07T04:49:29.023Z,-7.80
2023-02-07T04:51:55.312Z,-7.87
2023-02-07T04:54:21.674Z,-7.85
2023-02-07T04:56:47.986Z,-7.76
2023-02-07T04:59:14.320Z,-7.66
2023-02-07T05:01:40.610Z,-7.64
2023-02-07T05:04:06.909Z,-7.68
2023-02-07T05:06:33.205Z,-7.77
2023-02-07T05:08:59.507Z,-7.83
2023-02-07T05:11:25.846Z,-7.87
2023-02-07T05:13:52.144Z,-7.88
2023-02-07T05:16:18.486Z,-7.94
2023-02-07T05:18:44.774Z,-7.96
2023-02-07T05:21:11.098Z,-7.95
2023-02-07T05:23:37.369Z,-7.93
2023-02-07T05:26:03.760Z,-7.92
2023-02-07T05:28:30.064Z,-7.92
2023-02-07T05:30:59.854Z,-7.99
2023-02-07T05:33:26.249Z,-7.98
2023-02-07T05:35:52.570Z,-7.99
2023-02-07T05:38:20.092Z,-8.00
2023-02-07T05:40:47.375Z,-8.06
2023-02-07T05:43:14.126Z,-7.95
2023-02-07T05:45:40.767Z,-7.89
2023-02-07T05:48:10.457Z,-7.89
2023-02-07T05:53:23.432Z,-7.98
2023-02-07T05:55:51.706Z,-8.03
2023-02-07T05:58:18.039Z,-8.03
2023-02-07T06:00:44.322Z,-8.04
2023-02-07T06:03:10.668Z,-8.03
2023-02-07T06:05:37.434Z,-8.06
2023-02-07T06:08:04.118Z,-8.08
2023-02-07T06:10:30.430Z,-8.09
2023-02-07T06:12:56.740Z,-8.15
2023-02-07T06:15:23.219Z,-8.16
2023-02-07T06:17:49.632Z,-8.16
2023-02-07T06:20:16.198Z,-8.19
2023-02-07T06:22:42.502Z,-8.18
2023-02-07T06:25:09.221Z,-8.15
2023-02-07T06:27:35.512Z,-8.12
2023-02-07T06:30:01.842Z,-8.09
2023-02-07T06:32:28.151Z,-8.03
2023-02-07T06:34:54.462Z,-8.03
2023-02-07T06:37:20.767Z,-8.02
2023-02-07T06:39:47.060Z,-8.05
2023-02-07T06:42:13.365Z,-8.07
2023-02-07T06:44:39.653Z,-8.06
2023-02-07T06:47:05.950Z,-8.02
2023-02-07T06:49:32.304Z,-8.01
2023-02-07T06:51:58.865Z,-8.00
2023-02-07T06:54:25.220Z,-7.95
2023-02-07T06:56:51.528Z,-7.95
2023-02-07T06:59:17.960Z,-7.93
2023-02-07T07:01:44.381Z,-7.90
2023-02-07T07:04:10.727Z,-7.89
2023-02-07T07:06:37.109Z,-7.87
2023-02-07T07:09:04.384Z,-7.84
2023-02-07T07:11:30.786Z,-7.82
2023-02-07T07:13:57.069Z,-7.81
2023-02-07T07:16:23.503Z,-7.77
2023-02-07T07:18:50.183Z,-7.71
2023-02-07T07:21:16.568Z,-7.67
2023-02-07T07:23:42.894Z,-7.60
2023-02-07T07:26:09.194Z,-7.54
2023-02-07T07:28:35.555Z,-7.50
2023-02-07T07:31:04.170Z,-7.44
2023-02-07T07:33:30.531Z,-7.36
2023-02-07T07:35:58.002Z,-7.29
2023-02-07T07:38:24.359Z,-7.22
2023-02-07T07:40:50.677Z,-7.11
2023-02-07T07:43:17.073Z,-7.00
2023-02-07T07:45:43.389Z,-6.95
2023-02-07T07:48:09.778Z,-6.86
2023-02-07T07:50:36.131Z,-6.75
2023-02-07T07:53:02.436Z,-6.68
2023-02-07T07:55:28.756Z,-6.55
2023-02-07T07:57:55.031Z,-6.47
2023-02-07T08:00:21.394Z,-6.38
2023-02-07T08:02:47.702Z,-6.33
2023-02-07T08:05:14.094Z,-6.25
2023-02-07T08:07:40.589Z,-6.18
2023-02-07T08:10:06.969Z,-6.10
2023-02-07T08:12:33.426Z,-5.98
2023-02-07T08:14:59.765Z,-5.91
2023-02-07T08:17:26.097Z,-5.86
2023-02-07T08:19:52.411Z,-5.81
2023-02-07T08:22:18.771Z,-5.73
2023-02-07T08:24:45.055Z,-5.63
2023-02-07T08:27:11.519Z,-5.51
2023-02-07T08:29:37.851Z,-5.37
2023-02-07T08:32:04.351Z,-5.26
2023-02-07T08:34:31.147Z,-5.20
2023-02-07T08:36:57.444Z,-5.12
2023-02-07T08:39:23.744Z,-5.06
2023-02-07T08:41:50.043Z,-5.01
2023-02-07T08:44:16.356Z,-4.94
2023-02-07T08:46:42.638Z,-4.85
2023-02-07T08:49:10.122Z,-4.79
2023-02-07T08:51:36.457Z,-4.69
2023-02-07T08:54:02.811Z,-4.65
2023-02-07T08:56:29.137Z,-4.56
2023-02-07T08:58:55.441Z,-4.46
2023-02-07T09:01:21.818Z,-4.35
2023-02-07T09:03:48.128Z,-4.29
2023-02-07T09:06:14.408Z,-4.21
2023-02-07T09:08:40.730Z,-4.14
2023-02-07T09:11:10.095Z,-4.06
2023-02-07T09:13:36.628Z,-3.94
2023-02-07T09:16:02.960Z,-3.84
2023-02-07T09:18:29.534Z,-3.74
2023-02-07T09:20:55.851Z,-3.57
2023-02-07T09:23:22.192Z,-3.37
2023-02-07T09:25:52.666Z,-3.26
2023-02-07T09:28:20.358Z,-3.21
2023-02-07T09:30:47.177Z,-3.19
2023-02-07T09:33:15.277Z,-3.16
2023-02-07T09:35:44.140Z,-3.10
2023-02-07T09:38:16.456Z,-2.88
2023-02-07T09:40:44.084Z,-2.74
2023-02-07T09:43:19.211Z,-2.69
2023-02-07T09:45:49.418Z,-2.53
2023-02-07T09:48:50.257Z,-2.47
2023-02-07T09:51:20.040Z,-2.31
2023-02-07T09:53:53.346Z,-2.30
2023-02-07T09:56:23.163Z,-2.19
2023-02-07T09:59:37.925Z,-2.13
2023-02-07T10:02:11.582Z,-2.00
2023-02-07T10:04:43.959Z,-2.01
2023-02-07T10:07:11.532Z,-1.99
2023-02-07T10:09:41.550Z,-2.00
2023-02-07T10:12:26.688Z,-1.98
2023-02-07T10:15:35.642Z,-1.76
2023-02-07T10:18:13.945Z,-1.60
2023-02-07T10:20:58.771Z,-1.61
2023-02-07T10:23:46.599Z,-1.54
2023-02-07T10:26:24.858Z,-1.40
2023-02-07T10:29:06.239Z,-1.27
2023-02-07T10:31:38.359Z,-1.21
2023-02-07T10:34:13.806Z,-1.26
2023-02-07T10:36:45.728Z,-1.20
2023-02-07T10:39:22.068Z,-1.12
2023-02-07T10:41:49.245Z,-1.12
2023-02-07T10:44:18.880Z,-1.03
2023-02-07T10:46:47.714Z,-0.93
2023-02-07T10:49:24.837Z,-0.87
2023-02-07T10:51:52.054Z,-0.86
2023-02-07T10:54:20.488Z,-0.83
2023-02-07T10:57:01.691Z,-0.76
2023-02-07T10:59:43.366Z,-0.55
2023-02-07T11:02:43.388Z,-0.48
2023-02-07T11:05:15.468Z,-0.39
2023-02-07T11:07:56.214Z,-0.42
2023-02-07T11:10:43.722Z,-0.33
2023-02-07T11:13:24.752Z,-0.24
2023-02-07T11:16:01.602Z,-0.20
2023-02-07T11:18:31.526Z,-0.16
2023-02-07T11:20:57.947Z,-0.04
2023-02-07T11:23:25.376Z,0.03
2023-02-07T11:25:55.266Z,0.11
2023-02-07T11:28:21.664Z,0.19
2023-02-07T11:30:55.440Z,0.21
2023-02-07T11:33:26.705Z,0.36
2023-02-07T11:36:22.292Z,0.40
2023-02-07T11:38:53.945Z,0.45
2023-02-07T11:41:25.907Z,0.56
2023-02-07T11:43:53.948Z,0.57
2023-02-07T11:46:20.341Z,0.66
2023-02-07T11:48:49.610Z,0.79
2023-02-07T11:51:18.612Z,0.77
2023-02-07T11:53:51.094Z,0.81
2023-02-07T11:56:24.799Z,0.74
2023-02-07T11:58:53.051Z,0.87
2023-02-07T12:01:25.964Z,0.92
2023-02-07T12:03:56.381Z,0.89
2023-02-07T12:06:26.434Z,0.98
2023-02-07T12:08:53.181Z,1.21
2023-02-07T12:11:25.688Z,1.35
2023-02-07T12:14:33.269Z,1.56
2023-02-07T12:17:01.718Z,1.74
2023-02-07T12:19:35.393Z,1.62
2023-02-07T12:22:11.566Z,1.81
2023-02-07T12:24:45.692Z,1.75
2023-02-07T12:27:16.110Z,1.79
2023-02-07T12:29:51.751Z,1.83
2023-02-07T12:32:49.292Z,2.03
2023-02-07T12:35:39.261Z,2.22
2023-02-07T12:38:24.319Z,2.35
2023-02-07T12:40:55.735Z,2.44
2023-02-07T12:43:32.318Z,2.46
2023-02-07T12:46:01.722Z,2.52
2023-02-07T12:48:28.011Z,2.65
2023-02-07T12:51:08.803Z,2.75
2023-02-07T12:53:56.414Z,2.61
2023-02-07T12:56:44.082Z,2.62
2023-02-07T12:59:41.955Z,2.71
2023-02-07T13:02:40.394Z,2.84
2023-02-07T13:05:23.981Z,2.84
2023-02-07T13:08:02.363Z,2.90
2023-02-07T13:10:34.632Z,2.68
2023-02-07T13:13:25.911Z,2.56
2023-02-07T13:16:04.358Z,2.48
2023-02-07T13:18:50.533Z,2.62
2023-02-07T13:21:28.574Z,2.38
2023-02-07T13:24:01.099Z,2.56
2023-02-07T13:26:28.689Z,2.76
2023-02-07T13:28:58.815Z,2.77
2023-02-07T13:31:41.771Z,2.56
2023-02-07T13:34:15.736Z,2.79
2023-02-07T13:36:44.808Z,2.86
2023-02-07T13:39:29.830Z,2.98
2023-02-07T13:42:31.584Z,2.93
2023-02-07T13:45:04.107Z,2.84
2023-02-07T13:47:54.497Z,2.89
2023-02-07T13:50:58.516Z,3.00
2023-02-07T13:53:33.566Z,3.07
2023-02-07T13:56:02.858Z,3.17
2023-02-07T13:58:35.278Z,3.04
2023-02-07T14:01:15.411Z,3.06
2023-02-07T14:03:58.209Z,3.01
2023-02-07T14:06:30.302Z,2.90
2023-02-07T14:09:20.337Z,2.84
2023-02-07T14:11:50.040Z,2.89
2023-02-07T14:14:23.281Z,2.97
2023-02-07T14:16:51.035Z,2.94
2023-02-07T14:19:40.074Z,2.86
2023-02-07T14:22:15.900Z,2.76
2023-02-07T14:24:58.638Z,2.73
2023-02-07T14:27:50.752Z,2.79
2023-02-07T14:30:46.596Z,2.68
2023-02-07T14:33:19.186Z,2.62
2023-02-07T14:36:13.792Z,2.52
2023-02-07T14:39:01.748Z,2.36
2023-02-07T14:41:33.503Z,2.35
2023-02-07T14:44:10.392Z,2.34
2023-02-07T14:46:41.598Z,2.27
2023-02-07T14:49:43.804Z,2.17
2023-02-07T14:52:23.557Z,2.11
2023-02-07T14:54:54.771Z,1.99
2023-02-07T14:57:50.767Z,1.90
2023-02-07T15:00:29.638Z,1.95
2023-02-07T15:03:01.249Z,1.80
2023-02-07T15:05:31.030Z,1.71
2023-02-07T15:08:09.066Z,1.67
2023-02-07T15:11:01.822Z,1.60
2023-02-07T15:13:37.169Z,1.57
2023-02-07T15:16:14.216Z,1.49
2023-02-07T15:18:45.903Z,1.45
2023-02-07T15:21:30.996Z,1.40
2023-02-07T15:24:06.814Z,1.38
2023-02-07T15:26:35.186Z,1.31
2023-02-07T15:29:06.947Z,1.31
2023-02-07T15:31:41.003Z,1.28
2023-02-07T15:34:16.029Z,1.17
2023-02-07T15:36:45.442Z,1.12
2023-02-07T15:39:16.531Z,1.07
2023-02-07T15:41:46.019Z,1.05
2023-02-07T15:44:27.165Z,0.93
2023-02-07T15:47:02.289Z,0.73
2023-02-07T15:49:30.261Z,0.63
2023-02-07T15:52:21.013Z,0.51
2023-02-07T15:54:51.302Z,0.41
2023-02-07T15:57:28.142Z,0.35
2023-02-07T15:59:56.578Z,0.23
2023-02-07T16:02:28.759Z,0.09
2023-02-07T16:04:55.355Z,0.06
2023-02-07T16:07:22.933Z,0.03
2023-02-07T16:09:49.377Z,-0.15
2023-02-07T16:12:41.593Z,-0.26
2023-02-07T16:15:24.338Z,-0.33
2023-02-07T16:17:50.874Z,-0.41
2023-02-07T16:20:17.435Z,-0.51
2023-02-07T16:22:45.579Z,-0.59
2023-02-07T16:25:35.028Z,-0.62
2023-02-07T16:28:02.892Z,-0.76
2023-02-07T16:30:33.424Z,-0.78
2023-02-07T16:33:04.722Z,-0.88
2023-02-07T16:35:31.115Z,-0.95
2023-02-07T16:37:57.535Z,-1.02
2023-02-07T16:40:24.371Z,-1.05
2023-02-07T16:42:53.490Z,-1.05
2023-02-07T16:45:25.678Z,-1.06
2023-02-07T16:47:52.867Z,-1.18
2023-02-07T16:50:24.643Z,-1.20
2023-02-07T16:52:52.184Z,-1.27
2023-02-07T16:55:20.569Z,-1.28
2023-02-07T16:57:48.399Z,-1.31
2023-02-07T17:00:18.004Z,-1.36
2023-02-07T17:02:44.349Z,-1.31
2023-02-07T17:05:10.727Z,-1.40
2023-02-07T17:07:37.179Z,-1.35
2023-02-07T17:10:15.947Z,-1.30
2023-02-07T17:12:42.313Z,-1.31
2023-02-07T17:15:09.278Z,-1.34
2023-02-07T17:17:35.694Z,-1.36
2023-02-07T17:20:02.159Z,-1.36
2023-02-07T17:22:28.502Z,-1.32
2023-02-07T17:24:54.841Z,-1.31
2023-02-07T17:27:21.273Z,-1.29
2023-02-07T17:29:47.606Z,-1.28
2023-02-07T17:32:19.502Z,-1.29
2023-02-07T17:34:56.225Z,-1.32
2023-02-07T17:37:22.545Z,-1.33
2023-02-07T17:39:48.862Z,-1.32
2023-02-07T17:42:15.196Z,-1.30
2023-02-07T17:44:41.524Z,-1.29
2023-02-07T17:47:09.164Z,-1.28
2023-02-07T17:49:35.515Z,-1.28
2023-02-07T17:52:01.876Z,-1.34
2023-02-07T17:54:28.246Z,-1.35
2023-02-07T17:56:55.702Z,-1.36
2023-02-07T17:59:23.211Z,-1.38
2023-02-07T18:01:50.114Z,-1.42
2023-02-07T18:04:16.497Z,-1.50
2023-02-07T18:06:42.815Z,-1.55
2023-02-07T18:09:17.825Z,-1.51
2023-02-07T18:11:44.240Z,-1.54
2023-02-07T18:14:10.633Z,-1.65
2023-02-07T18:16:36.993Z,-1.69
2023-02-07T18:19:03.545Z,-1.73
2023-02-07T18:21:29.942Z,-1.77
2023-02-07T18:23:56.743Z,-1.80
2023-02-07T18:26:23.358Z,-1.80
2023-02-07T18:28:50.083Z,-1.75
2023-02-07T18:31:19.778Z,-1.78
2023-02-07T18:33:47.281Z,-1.84
2023-02-07T18:36:14.553Z,-1.94
2023-02-07T18:38:44.017Z,-2.01
2023-02-07T18:41:12.571Z,-2.06
2023-02-07T18:43:40.235Z,-2.13
2023-02-07T18:46:11.815Z,-2.15
2023-02-07T18:48:38.918Z,-2.21
2023-02-07T18:51:09.597Z,-2.20
2023-02-07T18:53:36.357Z,-2.20
2023-02-07T18:56:07.600Z,-2.29
2023-02-07T18:58:34.446Z,-2.32
2023-02-07T19:01:11.962Z,-2.31
2023-02-07T19:03:38.362Z,-2.39
2023-02-07T19:06:06.756Z,-2.50
2023-02-07T19:08:38.041Z,-2.56
2023-02-07T19:11:06.768Z,-2.64
2023-02-07T19:13:34.743Z,-2.68
2023-02-07T19:16:09.095Z,-2.69
2023-02-07T19:18:35.416Z,-2.74
2023-02-07T19:21:06.646Z,-2.73
2023-02-07T19:23:33.490Z,-2.78
2023-02-07T19:26:00.516Z,-2.74
2023-02-07T19:28:26.861Z,-2.76
2023-02-07T19:30:53.243Z,-2.80
2023-02-07T19:33:19.570Z,-2.86
2023-02-07T19:35:45.941Z,-2.85
2023-02-07T19:38:12.289Z,-2.83
2023-02-07T19:40:38.928Z,-2.86
2023-02-07T19:43:05.408Z,-2.93
2023-02-07T19:45:31.748Z,-3.00
2023-02-07T19:47:58.050Z,-3.04
2023-02-07T19:50:24.400Z,-3.01
2023-02-07T19:52:50.693Z,-2.97
2023-02-07T19:55:17.116Z,-3.02
2023-02-07T19:57:46.159Z,-3.05
2023-02-07T20:00:15.506Z,-3.12
2023-02-07T20:02:41.836Z,-3.14
2023-02-07T20:05:08.122Z,-3.18
2023-02-07T20:07:34.476Z,-3.17
2023-02-07T20:10:00.900Z,-3.15
2023-02-07T20:12:27.324Z,-3.20
2023-02-07T20:14:53.688Z,-3.20
2023-02-07T20:17:20.059Z,-3.25
2023-02-07T20:19:46.386Z,-3.29
2023-02-07T20:22:12.711Z,-3.39
2023-02-07T20:24:39.028Z,-3.44
2023-02-07T20:27:05.357Z,-3.51
2023-02-07T20:29:31.677Z,-3.53
2023-02-07T20:31:58.028Z,-3.61
2023-02-07T20:34:24.355Z,-3.60
2023-02-07T20:36:50.705Z,-3.61
2023-02-07T20:39:20.454Z,-3.63
2023-02-07T20:41:47.944Z,-3.65
2023-02-07T20:44:16.185Z,-3.62
2023-02-07T20:46:43.577Z,-3.66
2023-02-07T20:49:16.216Z,-3.66
2023-02-07T20:51:46.909Z,-3.70
2023-02-07T20:54:13.221Z,-3.77
2023-02-07T20:56:39.525Z,-3.79
2023-02-07T20:59:06.348Z,-3.78
2023-02-07T21:01:33.838Z,-3.79
2023-02-07T21:04:06.893Z,-3.74
2023-02-07T21:06:34.633Z,-3.76
2023-02-07T21:09:03.108Z,-3.85
2023-02-07T21:11:34.054Z,-3.85
2023-02-07T21:14:01.332Z,-3.85
2023-02-07T21:16:27.772Z,-3.86
2023-02-07T21:18:54.232Z,-3.89
2023-02-07T21:21:20.564Z,-3.94
2023-02-07T21:23:46.888Z,-4.00
2023-02-07T21:26:15.872Z,-3.94
2023-02-07T21:28:42.633Z,-4.03
2023-02-07T21:31:18.691Z,-4.12
2023-02-07T21:33:45.570Z,-4.08
2023-02-07T21:36:15.040Z,-4.07
2023-02-07T21:38:44.950Z,-4.14
2023-02-07T21:41:12.741Z,-4.20
2023-02-07T21:43:39.726Z,-4.21
2023-02-07T21:46:09.105Z,-4.14
2023-02-07T21:48:37.039Z,-4.18
2023-02-07T21:51:05.044Z,-4.25
2023-02-07T21:53:31.385Z,-4.36
2023-02-07T21:56:02.598Z,-4.35
2023-02-07T21:58:28.970Z,-4.34
2023-02-07T22:00:55.734Z,-4.33
2023-02-07T22:03:22.573Z,-4.29
2023-02-07T22:05:51.553Z,-4.30
2023-02-07T22:08:17.912Z,-4.28
2023-02-07T22:10:44.250Z,-4.26
2023-02-07T22:13:12.287Z,-4.29
2023-02-07T22:15:38.643Z,-4.34
2023-02-07T22:18:05.072Z,-4.40
2023-02-07T22:20:32.264Z,-4.36
2023-02-07T22:22:58.587Z,-4.49
2023-02-07T22:25:24.930Z,-4.50
2023-02-07T22:27:51.253Z,-4.46
2023-02-07T22:30:17.660Z,-4.49
2023-02-07T22:32:43.960Z,-4.60
2023-02-07T22:35:10.299Z,-4.67
2023-02-07T22:37:36.559Z,-4.69
2023-02-07T22:40:03.154Z,-4.71
2023-02-07T22:42:34.361Z,-4.65
2023-02-07T22:45:00.941Z,-4.56
2023-02-07T22:47:27.273Z,-4.68
2023-02-07T22:49:53.591Z,-4.72
2023-02-07T22:52:19.873Z,-4.73
2023-02-07T22:54:46.185Z,-4.71
2023-02-07T22:57:12.495Z,-4.78
2023-02-07T22:59:39.272Z,-4.84
2023-02-07T23:02:05.575Z,-4.87
2023-02-07T23:04:31.923Z,-4.90
2023-02-07T23:06:58.227Z,-4.92
2023-02-07T23:09:24.577Z,-4.95
2023-02-07T23:11:50.934Z,-4.95
2023-02-07T23:14:17.253Z,-4.94
2023-02-07T23:16:43.557Z,-4.95
2023-02-07T23:19:15.779Z,-4.99
2023-02-07T23:21:42.485Z,-5.02
2023-02-07T23:24:09.265Z,-5.06
2023-02-07T23:26:35.592Z,-5.01
2023-02-07T23:29:02.429Z,-5.03
2023-02-07T23:31:29.291Z,-5.05
2023-02-07T23:33:55.846Z,-5.06
2023-02-07T23:36:22.248Z,-5.07
2023-02-07T23:38:49.478Z,-5.04
2023-02-07T23:41:16.650Z,-4.97
2023-02-07T23:43:43.352Z,-4.95
2023-02-07T23:46:09.933Z,-4.91
2023-02-07T23:48:38.610Z,-5.01
2023-02-07T23:51:06.023Z,-5.05
2023-02-07T23:53:32.678Z,-5.04
2023-02-07T23:55:59.117Z,-5.12
2023-02-07T23:58:26.634Z,-5.17
